sensor_id;sensor_type;location;lat;lon;timestamp;P1;durP1;ratioP1;P2;durP2;ratioP2
78344;SDS011;67620;51.134;6.548;2023-03-01T00:01:47;13.38;;;7.95;;
78344;SDS011;67620;51.134;6.548;2023-03-01T00:04:13;13.68;;;7.93;;
78344;SDS011;67620;51.134;6.548;2023-03-01T00:06:38;10.85;;;6.70;;
78344;SDS011;67620;51.134;6.548;2023-03-01T00:09:04;10.13;;;7.03;;
78344;SDS011;67620;51.134;6.548;2023-03-01T00:11:30;10.90;;;7.45;;
78344;SDS011;67620;51.134;6.548;2023-03-01T00:13:58;13.90;;;8.07;;
78344;SDS011;67620;51.134;6.548;2023-03-01T00:16:27;13.07;;;7.53;;
78344;SDS011;67620;51.134;6.548;2023-03-01T00:18:55;11.88;;;6.93;;
78344;SDS011;67620;51.134;6.548;2023-03-01T00:21:21;12.40;;;6.75;;
78344;SDS011;67620;51.134;6.548;2023-03-01T00:23:48;12.18;;;7.32;;
78344;SDS011;67620;51.134;6.548;2023-03-01T00:26:14;11.18;;;7.60;;
78344;SDS011;67620;51.134;6.548;2023-03-01T00:28:41;9.52;;;6.63;;
78344;SDS011;67620;51.134;6.548;2023-03-01T00:31:17;10.80;;;7.45;;
78344;SDS011;67620;51.134;6.548;2023-03-01T00:33:44;12.65;;;7.95;;
78344;SDS011;67620;51.134;6.548;2023-03-01T00:36:11;13.63;;;7.10;;
78344;SDS011;67620;51.134;6.548;2023-03-01T00:38:39;9.98;;;6.88;;
78344;SDS011;67620;51.134;6.548;2023-03-01T00:41:07;10.30;;;7.03;;
78344;SDS011;67620;51.134;6.548;2023-03-01T00:43:34;11.02;;;7.07;;
78344;SDS011;67620;51.134;6.548;2023-03-01T00:46:03;11.95;;;6.97;;
78344;SDS011;67620;51.134;6.548;2023-03-01T00:48:29;11.32;;;6.82;;
78344;SDS011;67620;51.134;6.548;2023-03-01T00:50:55;9.60;;;6.70;;
78344;SDS011;67620;51.134;6.548;2023-03-01T00:53:20;11.63;;;7.13;;
78344;SDS011;67620;51.134;6.548;2023-03-01T00:55:46;12.43;;;7.85;;
78344;SDS011;67620;51.134;6.548;2023-03-01T00:58:11;9.38;;;7.32;;
78344;SDS011;67620;51.134;6.548;2023-03-01T01:00:37;13.45;;;7.60;;
78344;SDS011;67620;51.134;6.548;2023-03-01T01:03:02;11.85;;;7.20;;
78344;SDS011;67620;51.134;6.548;2023-03-01T01:05:28;11.60;;;7.82;;
78344;SDS011;67620;51.134;6.548;2023-03-01T01:07:53;12.45;;;7.70;;
78344;SDS011;67620;51.134;6.548;2023-03-01T01:10:19;9.52;;;7.20;;
78344;SDS011;67620;51.134;6.548;2023-03-01T01:12:44;9.40;;;7.18;;
78344;SDS011;67620;51.134;6.548;2023-03-01T01:15:10;10.20;;;6.82;;
78344;SDS011;67620;51.134;6.548;2023-03-01T01:17:39;10.77;;;7.22;;
78344;SDS011;67620;51.134;6.548;2023-03-01T01:20:04;13.68;;;7.95;;
78344;SDS011;67620;51.134;6.548;2023-03-01T01:22:30;13.23;;;7.30;;
78344;SDS011;67620;51.134;6.548;2023-03-01T01:24:56;11.20;;;7.75;;
78344;SDS011;67620;51.134;6.548;2023-03-01T01:27:21;13.13;;;7.90;;
78344;SDS011;67620;51.134;6.548;2023-03-01T01:29:47;12.57;;;8.07;;
78344;SDS011;67620;51.134;6.548;2023-03-01T01:32:12;13.07;;;7.75;;
78344;SDS011;67620;51.134;6.548;2023-03-01T01:34:38;12.32;;;8.00;;
78344;SDS011;67620;51.134;6.548;2023-03-01T01:37:03;11.07;;;7.53;;
78344;SDS011;67620;51.134;6.548;2023-03-01T01:39:32;14.40;;;8.43;;
78344;SDS011;67620;51.134;6.548;2023-03-01T01:41:59;9.80;;;7.95;;
78344;SDS011;67620;51.134;6.548;2023-03-01T01:44:26;13.18;;;8.02;;
78344;SDS011;67620;51.134;6.548;2023-03-01T01:46:53;12.50;;;7.80;;
78344;SDS011;67620;51.134;6.548;2023-03-01T01:49:34;10.98;;;7.78;;
78344;SDS011;67620;51.134;6.548;2023-03-01T01:52:29;10.80;;;7.22;;
78344;SDS011;67620;51.134;6.548;2023-03-01T01:55:02;12.23;;;7.53;;
78344;SDS011;67620;51.134;6.548;2023-03-01T01:57:41;12.85;;;7.82;;
78344;SDS011;67620;51.134;6.548;2023-03-01T02:00:14;12.27;;;8.10;;
78344;SDS011;67620;51.134;6.548;2023-03-01T02:05:12;14.18;;;8.35;;
78344;SDS011;67620;51.134;6.548;2023-03-01T02:07:45;11.57;;;8.30;;
78344;SDS011;67620;51.134;6.548;2023-03-01T02:10:12;12.13;;;7.97;;
78344;SDS011;67620;51.134;6.548;2023-03-01T02:12:37;10.63;;;7.72;;
78344;SDS011;67620;51.134;6.548;2023-03-01T02:17:30;12.38;;;7.75;;
78344;SDS011;67620;51.134;6.548;2023-03-01T02:20:16;15.23;;;8.63;;
78344;SDS011;67620;51.134;6.548;2023-03-01T02:22:52;11.30;;;7.45;;
78344;SDS011;67620;51.134;6.548;2023-03-01T02:25:25;10.65;;;7.80;;
78344;SDS011;67620;51.134;6.548;2023-03-01T02:30:38;11.02;;;7.53;;
78344;SDS011;67620;51.134;6.548;2023-03-01T02:33:25;14.75;;;8.20;;
78344;SDS011;67620;51.134;6.548;2023-03-01T02:35:52;14.15;;;8.82;;
78344;SDS011;67620;51.134;6.548;2023-03-01T02:38:19;16.30;;;8.30;;
78344;SDS011;67620;51.134;6.548;2023-03-01T02:40:47;12.13;;;8.20;;
78344;SDS011;67620;51.134;6.548;2023-03-01T02:43:14;13.50;;;8.02;;
78344;SDS011;67620;51.134;6.548;2023-03-01T02:45:49;14.68;;;7.93;;
78344;SDS011;67620;51.134;6.548;2023-03-01T02:48:16;13.40;;;7.88;;
78344;SDS011;67620;51.134;6.548;2023-03-01T02:50:45;11.32;;;7.38;;
78344;SDS011;67620;51.134;6.548;2023-03-01T02:53:39;11.02;;;8.27;;
78344;SDS011;67620;51.134;6.548;2023-03-01T02:56:10;14.57;;;8.35;;
78344;SDS011;67620;51.134;6.548;2023-03-01T02:58:38;12.85;;;7.60;;
78344;SDS011;67620;51.134;6.548;2023-03-01T03:01:10;12.82;;;8.20;;
78344;SDS011;67620;51.134;6.548;2023-03-01T03:03:35;12.25;;;8.05;;
78344;SDS011;67620;51.134;6.548;2023-03-01T03:06:01;11.75;;;7.85;;
78344;SDS011;67620;51.134;6.548;2023-03-01T03:08:27;12.77;;;7.78;;
78344;SDS011;67620;51.134;6.548;2023-03-01T03:10:52;12.13;;;8.15;;
78344;SDS011;67620;51.134;6.548;2023-03-01T03:13:18;13.75;;;8.48;;
78344;SDS011;67620;51.134;6.548;2023-03-01T03:15:44;14.25;;;8.82;;
78344;SDS011;67620;51.134;6.548;2023-03-01T03:18:10;11.25;;;8.57;;
78344;SDS011;67620;51.134;6.548;2023-03-01T03:20:39;14.65;;;9.40;;
78344;SDS011;67620;51.134;6.548;2023-03-01T03:23:06;10.93;;;8.40;;
78344;SDS011;67620;51.134;6.548;2023-03-01T03:25:31;10.52;;;8.00;;
78344;SDS011;67620;51.134;6.548;2023-03-01T03:27:57;13.18;;;8.52;;
78344;SDS011;67620;51.134;6.548;2023-03-01T03:30:32;14.75;;;8.70;;
78344;SDS011;67620;51.134;6.548;2023-03-01T03:32:58;15.10;;;8.77;;
78344;SDS011;67620;51.134;6.548;2023-03-01T03:37:51;16.63;;;8.25;;
78344;SDS011;67620;51.134;6.548;2023-03-01T03:40:33;12.57;;;7.95;;
78344;SDS011;67620;51.134;6.548;2023-03-01T03:43:03;14.45;;;8.98;;
78344;SDS011;67620;51.134;6.548;2023-03-01T03:45:31;12.60;;;8.65;;
78344;SDS011;67620;51.134;6.548;2023-03-01T03:47:58;11.30;;;8.55;;
78344;SDS011;67620;51.134;6.548;2023-03-01T03:50:24;12.50;;;8.68;;
78344;SDS011;67620;51.134;6.548;2023-03-01T03:52:50;12.32;;;7.97;;
78344;SDS011;67620;51.134;6.548;2023-03-01T03:55:16;11.82;;;8.18;;
78344;SDS011;67620;51.134;6.548;2023-03-01T03:57:44;14.77;;;9.35;;
78344;SDS011;67620;51.134;6.548;2023-03-01T04:00:15;11.32;;;7.65;;
78344;SDS011;67620;51.134;6.548;2023-03-01T04:02:41;14.75;;;8.73;;
78344;SDS011;67620;51.134;6.548;2023-03-01T04:05:08;11.98;;;8.38;;
78344;SDS011;67620;51.134;6.548;2023-03-01T04:07:36;12.55;;;8.23;;
78344;SDS011;67620;51.134;6.548;2023-03-01T04:10:03;12.13;;;8.07;;
78344;SDS011;67620;51.134;6.548;2023-03-01T04:12:29;11.55;;;8.88;;
78344;SDS011;67620;51.134;6.548;2023-03-01T04:14:55;18.17;;;9.45;;
78344;SDS011;67620;51.134;6.548;2023-03-01T04:17:20;13.98;;;8.52;;
78344;SDS011;67620;51.134;6.548;2023-03-01T04:19:46;15.30;;;8.60;;
78344;SDS011;67620;51.134;6.548;2023-03-01T04:22:13;14.80;;;8.32;;
78344;SDS011;67620;51.134;6.548;2023-03-01T04:24:43;14.48;;;8.80;;
78344;SDS011;67620;51.134;6.548;2023-03-01T04:27:09;14.52;;;8.85;;
78344;SDS011;67620;51.134;6.548;2023-03-01T04:29:35;12.85;;;8.27;;
78344;SDS011;67620;51.134;6.548;2023-03-01T04:32:00;13.35;;;8.32;;
78344;SDS011;67620;51.134;6.548;2023-03-01T04:34:26;15.02;;;8.65;;
78344;SDS011;67620;51.134;6.548;2023-03-01T04:36:52;15.95;;;8.85;;
78344;SDS011;67620;51.134;6.548;2023-03-01T04:39:17;14.35;;;8.82;;
78344;SDS011;67620;51.134;6.548;2023-03-01T04:41:43;11.27;;;8.10;;
78344;SDS011;67620;51.134;6.548;2023-03-01T04:44:09;13.00;;;8.27;;
78344;SDS011;67620;51.134;6.548;2023-03-01T04:46:35;11.65;;;8.48;;
78344;SDS011;67620;51.134;6.548;2023-03-01T04:49:01;13.05;;;8.45;;
78344;SDS011;67620;51.134;6.548;2023-03-01T04:51:27;13.63;;;8.63;;
78344;SDS011;67620;51.134;6.548;2023-03-01T04:53:53;11.70;;;8.60;;
78344;SDS011;67620;51.134;6.548;2023-03-01T04:56:19;13.02;;;9.00;;
78344;SDS011;67620;51.134;6.548;2023-03-01T04:58:47;13.80;;;8.98;;
78344;SDS011;67620;51.134;6.548;2023-03-01T05:01:14;13.63;;;8.30;;
78344;SDS011;67620;51.134;6.548;2023-03-01T05:03:45;12.05;;;8.70;;
78344;SDS011;67620;51.134;6.548;2023-03-01T05:06:12;14.98;;;8.32;;
78344;SDS011;67620;51.134;6.548;2023-03-01T05:08:38;14.55;;;8.60;;
78344;SDS011;67620;51.134;6.548;2023-03-01T05:11:05;14.55;;;8.77;;
78344;SDS011;67620;51.134;6.548;2023-03-01T05:13:33;13.82;;;8.73;;
78344;SDS011;67620;51.134;6.548;2023-03-01T05:16:01;13.48;;;8.82;;
78344;SDS011;67620;51.134;6.548;2023-03-01T05:18:28;13.73;;;8.75;;
78344;SDS011;67620;51.134;6.548;2023-03-01T05:20:55;15.70;;;8.30;;
78344;SDS011;67620;51.134;6.548;2023-03-01T05:23:26;13.45;;;8.57;;
78344;SDS011;67620;51.134;6.548;2023-03-01T05:25:52;14.55;;;8.90;;
78344;SDS011;67620;51.134;6.548;2023-03-01T05:28:18;15.75;;;8.80;;
78344;SDS011;67620;51.134;6.548;2023-03-01T05:30:44;14.52;;;8.85;;
78344;SDS011;67620;51.134;6.548;2023-03-01T05:33:11;17.23;;;9.00;;
78344;SDS011;67620;51.134;6.548;2023-03-01T05:35:40;14.77;;;9.00;;
78344;SDS011;67620;51.134;6.548;2023-03-01T05:38:07;14.55;;;9.55;;
78344;SDS011;67620;51.134;6.548;2023-03-01T05:42:59;24.23;;;13.05;;
78344;SDS011;67620;51.134;6.548;2023-03-01T05:45:25;14.13;;;9.70;;
78344;SDS011;67620;51.134;6.548;2023-03-01T05:47:52;14.05;;;8.88;;
78344;SDS011;67620;51.134;6.548;2023-03-01T05:50:21;15.30;;;9.38;;
78344;SDS011;67620;51.134;6.548;2023-03-01T05:52:49;12.93;;;9.02;;
78344;SDS011;67620;51.134;6.548;2023-03-01T05:55:17;12.18;;;7.78;;
78344;SDS011;67620;51.134;6.548;2023-03-01T05:57:44;23.63;;;14.73;;
78344;SDS011;67620;51.134;6.548;2023-03-01T06:00:10;14.88;;;10.13;;
78344;SDS011;67620;51.134;6.548;2023-03-01T06:02:38;16.48;;;9.82;;
78344;SDS011;67620;51.134;6.548;2023-03-01T06:05:04;15.98;;;10.05;;
78344;SDS011;67620;51.134;6.548;2023-03-01T06:07:31;13.68;;;9.15;;
78344;SDS011;67620;51.134;6.548;2023-03-01T06:09:57;21.33;;;9.90;;
78344;SDS011;67620;51.134;6.548;2023-03-01T06:12:22;14.77;;;9.05;;
78344;SDS011;67620;51.134;6.548;2023-03-01T06:14:48;20.55;;;10.05;;
78344;SDS011;67620;51.134;6.548;2023-03-01T06:17:13;14.07;;;9.18;;
78344;SDS011;67620;51.134;6.548;2023-03-01T06:19:39;13.18;;;8.55;;
78344;SDS011;67620;51.134;6.548;2023-03-01T06:22:04;13.60;;;8.77;;
78344;SDS011;67620;51.134;6.548;2023-03-01T06:24:30;14.10;;;8.93;;
78344;SDS011;67620;51.134;6.548;2023-03-01T06:26:56;14.88;;;9.73;;
78344;SDS011;67620;51.134;6.548;2023-03-01T06:29:21;14.45;;;9.45;;
78344;SDS011;67620;51.134;6.548;2023-03-01T06:31:47;15.43;;;9.15;;
78344;SDS011;67620;51.134;6.548;2023-03-01T06:34:13;13.43;;;8.85;;
78344;SDS011;67620;51.134;6.548;2023-03-01T06:36:39;16.67;;;9.10;;
78344;SDS011;67620;51.134;6.548;2023-03-01T06:39:05;14.30;;;9.13;;
78344;SDS011;67620;51.134;6.548;2023-03-01T06:41:31;19.17;;;10.88;;
78344;SDS011;67620;51.134;6.548;2023-03-01T06:46:23;22.58;;;12.23;;
78344;SDS011;67620;51.134;6.548;2023-03-01T06:48:49;32.58;;;16.88;;
78344;SDS011;67620;51.134;6.548;2023-03-01T06:51:14;26.20;;;13.07;;
78344;SDS011;67620;51.134;6.548;2023-03-01T06:53:40;44.17;;;19.67;;
78344;SDS011;67620;51.134;6.548;2023-03-01T06:56:05;22.70;;;12.43;;
78344;SDS011;67620;51.134;6.548;2023-03-01T06:58:31;16.17;;;9.80;;
78344;SDS011;67620;51.134;6.548;2023-03-01T07:00:57;17.02;;;10.63;;
78344;SDS011;67620;51.134;6.548;2023-03-01T07:03:23;16.90;;;9.93;;
78344;SDS011;67620;51.134;6.548;2023-03-01T07:05:49;15.82;;;10.10;;
78344;SDS011;67620;51.134;6.548;2023-03-01T07:08:17;17.45;;;9.98;;
78344;SDS011;67620;51.134;6.548;2023-03-01T07:10:43;16.10;;;9.93;;
78344;SDS011;67620;51.134;6.548;2023-03-01T07:13:08;16.52;;;9.82;;
78344;SDS011;67620;51.134;6.548;2023-03-01T07:15:34;36.42;;;17.90;;
78344;SDS011;67620;51.134;6.548;2023-03-01T07:17:59;64.45;;;27.75;;
78344;SDS011;67620;51.134;6.548;2023-03-01T07:20:25;72.15;;;30.30;;
78344;SDS011;67620;51.134;6.548;2023-03-01T07:22:54;38.15;;;17.73;;
78344;SDS011;67620;51.134;6.548;2023-03-01T07:25:21;32.22;;;17.13;;
78344;SDS011;67620;51.134;6.548;2023-03-01T07:27:50;54.40;;;27.33;;
78344;SDS011;67620;51.134;6.548;2023-03-01T07:30:17;23.90;;;14.52;;
78344;SDS011;67620;51.134;6.548;2023-03-01T07:32:42;25.70;;;14.23;;
78344;SDS011;67620;51.134;6.548;2023-03-01T07:35:08;28.90;;;17.23;;
78344;SDS011;67620;51.134;6.548;2023-03-01T07:37:33;17.98;;;11.30;;
78344;SDS011;67620;51.134;6.548;2023-03-01T07:39:59;17.65;;;10.15;;
78344;SDS011;67620;51.134;6.548;2023-03-01T07:42:24;19.13;;;11.00;;
78344;SDS011;67620;51.134;6.548;2023-03-01T07:44:50;14.27;;;10.05;;
78344;SDS011;67620;51.134;6.548;2023-03-01T07:47:15;16.17;;;10.18;;
78344;SDS011;67620;51.134;6.548;2023-03-01T07:49:41;16.67;;;9.93;;
78344;SDS011;67620;51.134;6.548;2023-03-01T07:52:06;14.23;;;10.45;;
78344;SDS011;67620;51.134;6.548;2023-03-01T07:54:35;18.05;;;11.45;;
78344;SDS011;67620;51.134;6.548;2023-03-01T07:57:01;16.17;;;10.50;;
78344;SDS011;67620;51.134;6.548;2023-03-01T07:59:26;15.07;;;10.27;;
78344;SDS011;67620;51.134;6.548;2023-03-01T08:01:54;17.70;;;10.38;;
78344;SDS011;67620;51.134;6.548;2023-03-01T08:06:46;15.60;;;9.38;;
78344;SDS011;67620;51.134;6.548;2023-03-01T08:09:11;12.57;;;9.30;;
78344;SDS011;67620;51.134;6.548;2023-03-01T08:11:38;17.75;;;10.05;;
78344;SDS011;67620;51.134;6.548;2023-03-01T08:14:03;11.95;;;8.88;;
78344;SDS011;67620;51.134;6.548;2023-03-01T08:16:29;14.95;;;9.73;;
78344;SDS011;67620;51.134;6.548;2023-03-01T08:18:54;13.27;;;9.55;;
78344;SDS011;67620;51.134;6.548;2023-03-01T08:21:21;16.65;;;9.48;;
78344;SDS011;67620;51.134;6.548;2023-03-01T08:23:47;13.77;;;9.48;;
78344;SDS011;67620;51.134;6.548;2023-03-01T08:26:20;15.63;;;10.25;;
78344;SDS011;67620;51.134;6.548;2023-03-01T08:28:46;13.98;;;8.63;;
78344;SDS011;67620;51.134;6.548;2023-03-01T08:31:17;13.95;;;8.82;;
78344;SDS011;67620;51.134;6.548;2023-03-01T08:33:44;12.73;;;8.32;;
78344;SDS011;67620;51.134;6.548;2023-03-01T08:36:15;15.75;;;9.00;;
78344;SDS011;67620;51.134;6.548;2023-03-01T08:38:41;12.25;;;8.55;;
78344;SDS011;67620;51.134;6.548;2023-03-01T08:41:07;12.35;;;8.35;;
78344;SDS011;67620;51.134;6.548;2023-03-01T08:43:32;10.77;;;8.52;;
78344;SDS011;67620;51.134;6.548;2023-03-01T08:45:58;15.77;;;9.27;;
78344;SDS011;67620;51.134;6.548;2023-03-01T08:48:23;12.35;;;8.45;;
78344;SDS011;67620;51.134;6.548;2023-03-01T08:53:15;11.60;;;8.48;;
78344;SDS011;67620;51.134;6.548;2023-03-01T08:55:40;12.27;;;8.45;;
78344;SDS011;67620;51.134;6.548;2023-03-01T08:58:06;15.07;;;8.93;;
78344;SDS011;67620;51.134;6.548;2023-03-01T09:02:59;11.45;;;8.90;;
78344;SDS011;67620;51.134;6.548;2023-03-01T09:07:50;11.57;;;8.68;;
78344;SDS011;67620;51.134;6.548;2023-03-01T09:10:16;12.55;;;10.15;;
78344;SDS011;67620;51.134;6.548;2023-03-01T09:15:07;12.95;;;10.05;;
78344;SDS011;67620;51.134;6.548;2023-03-01T09:19:59;15.18;;;10.50;;
78344;SDS011;67620;51.134;6.548;2023-03-01T09:22:24;15.55;;;10.63;;
78344;SDS011;67620;51.134;6.548;2023-03-01T09:24:50;14.75;;;10.43;;
78344;SDS011;67620;51.134;6.548;2023-03-01T09:27:16;17.23;;;11.35;;
78344;SDS011;67620;51.134;6.548;2023-03-01T09:29:43;15.70;;;11.05;;
78344;SDS011;67620;51.134;6.548;2023-03-01T09:32:09;16.95;;;11.95;;
78344;SDS011;67620;51.134;6.548;2023-03-01T09:34:35;19.45;;;12.07;;
78344;SDS011;67620;51.134;6.548;2023-03-01T09:37:23;18.40;;;11.85;;
78344;SDS011;67620;51.134;6.548;2023-03-01T09:39:49;19.45;;;11.93;;
78344;SDS011;67620;51.134;6.548;2023-03-01T09:42:14;19.63;;;11.98;;
78344;SDS011;67620;51.134;6.548;2023-03-01T09:47:18;19.67;;;11.38;;
78344;SDS011;67620;51.134;6.548;2023-03-01T09:50:15;18.15;;;10.02;;
78344;SDS011;67620;51.134;6.548;2023-03-01T09:55:17;17.35;;;9.18;;
78344;SDS011;67620;51.134;6.548;2023-03-01T09:57:55;14.65;;;9.80;;
78344;SDS011;67620;51.134;6.548;2023-03-01T10:00:38;13.63;;;10.52;;
78344;SDS011;67620;51.134;6.548;2023-03-01T10:05:55;12.80;;;8.55;;
78344;SDS011;67620;51.134;6.548;2023-03-01T10:08:31;13.95;;;8.35;;
78344;SDS011;67620;51.134;6.548;2023-03-01T10:11:20;18.85;;;9.55;;
78344;SDS011;67620;51.134;6.548;2023-03-01T10:16:21;12.77;;;8.60;;
78344;SDS011;67620;51.134;6.548;2023-03-01T10:18:59;13.10;;;8.75;;
78344;SDS011;67620;51.134;6.548;2023-03-01T10:21:27;15.13;;;8.93;;
78344;SDS011;67620;51.134;6.548;2023-03-01T10:23:56;17.33;;;9.65;;
78344;SDS011;67620;51.134;6.548;2023-03-01T10:29:46;14.23;;;9.65;;
78344;SDS011;67620;51.134;6.548;2023-03-01T10:32:25;17.05;;;8.82;;
78344;SDS011;67620;51.134;6.548;2023-03-01T10:34:51;12.18;;;8.63;;
78344;SDS011;67620;51.134;6.548;2023-03-01T10:37:17;11.65;;;7.97;;
78344;SDS011;67620;51.134;6.548;2023-03-01T10:40:06;14.50;;;8.63;;
78344;SDS011;67620;51.134;6.548;2023-03-01T10:42:35;13.05;;;7.72;;
78344;SDS011;67620;51.134;6.548;2023-03-01T10:45:26;18.00;;;8.52;;
78344;SDS011;67620;51.134;6.548;2023-03-01T10:48:14;13.60;;;8.52;;
78344;SDS011;67620;51.134;6.548;2023-03-01T10:51:05;12.68;;;8.07;;
78344;SDS011;67620;51.134;6.548;2023-03-01T10:53:34;14.10;;;8.77;;
78344;SDS011;67620;51.134;6.548;2023-03-01T10:56:09;10.90;;;7.85;;
78344;SDS011;67620;51.134;6.548;2023-03-01T10:58:39;12.05;;;7.95;;
78344;SDS011;67620;51.134;6.548;2023-03-01T11:01:29;15.40;;;8.82;;
78344;SDS011;67620;51.134;6.548;2023-03-01T11:06:35;11.77;;;7.70;;
78344;SDS011;67620;51.134;6.548;2023-03-01T11:09:18;12.48;;;7.75;;
78344;SDS011;67620;51.134;6.548;2023-03-01T11:11:45;13.82;;;7.82;;
78344;SDS011;67620;51.134;6.548;2023-03-01T11:16:47;11.10;;;7.63;;
78344;SDS011;67620;51.134;6.548;2023-03-01T11:19:22;12.57;;;8.00;;
78344;SDS011;67620;51.134;6.548;2023-03-01T11:24:24;12.10;;;8.15;;
78344;SDS011;67620;51.134;6.548;2023-03-01T11:27:08;17.05;;;8.35;;
78344;SDS011;67620;51.134;6.548;2023-03-01T11:29:43;12.32;;;8.00;;
78344;SDS011;67620;51.134;6.548;2023-03-01T11:32:11;10.60;;;7.80;;
78344;SDS011;67620;51.134;6.548;2023-03-01T11:34:53;14.18;;;8.90;;
78344;SDS011;67620;51.134;6.548;2023-03-01T11:37:32;11.43;;;8.10;;
78344;SDS011;67620;51.134;6.548;2023-03-01T11:40:33;12.38;;;8.18;;
78344;SDS011;67620;51.134;6.548;2023-03-01T11:43:05;14.45;;;8.38;;
78344;SDS011;67620;51.134;6.548;2023-03-01T11:45:47;14.18;;;8.55;;
78344;SDS011;67620;51.134;6.548;2023-03-01T11:51:15;11.93;;;7.57;;
78344;SDS011;67620;51.134;6.548;2023-03-01T11:54:13;12.40;;;8.27;;
78344;SDS011;67620;51.134;6.548;2023-03-01T12:05:05;14.80;;;9.05;;
78344;SDS011;67620;51.134;6.548;2023-03-01T12:12:58;14.27;;;9.07;;
78344;SDS011;67620;51.134;6.548;2023-03-01T12:15:50;13.48;;;8.50;;
78344;SDS011;67620;51.134;6.548;2023-03-01T12:21:10;14.38;;;8.38;;
78344;SDS011;67620;51.134;6.548;2023-03-01T12:26:36;14.35;;;9.20;;
78344;SDS011;67620;51.134;6.548;2023-03-01T12:29:24;15.00;;;9.75;;
78344;SDS011;67620;51.134;6.548;2023-03-01T12:34:35;13.90;;;9.02;;
78344;SDS011;67620;51.134;6.548;2023-03-01T12:37:25;14.65;;;8.70;;
78344;SDS011;67620;51.134;6.548;2023-03-01T12:40:42;10.63;;;8.00;;
78344;SDS011;67620;51.134;6.548;2023-03-01T12:45:32;12.95;;;7.43;;
78344;SDS011;67620;51.134;6.548;2023-03-01T12:51:07;12.38;;;7.80;;
78344;SDS011;67620;51.134;6.548;2023-03-01T12:53:39;11.20;;;6.93;;
78344;SDS011;67620;51.134;6.548;2023-03-01T12:56:11;10.13;;;7.28;;
78344;SDS011;67620;51.134;6.548;2023-03-01T13:04:06;11.25;;;7.22;;
78344;SDS011;67620;51.134;6.548;2023-03-01T13:06:41;9.85;;;6.78;;
78344;SDS011;67620;51.134;6.548;2023-03-01T13:11:53;10.43;;;6.20;;
78344;SDS011;67620;51.134;6.548;2023-03-01T13:14:34;10.10;;;6.38;;
78344;SDS011;67620;51.134;6.548;2023-03-01T13:17:01;10.05;;;6.25;;
78344;SDS011;67620;51.134;6.548;2023-03-01T13:19:27;9.80;;;6.65;;
78344;SDS011;67620;51.134;6.548;2023-03-01T13:22:01;10.02;;;6.57;;
78344;SDS011;67620;51.134;6.548;2023-03-01T13:25:01;8.20;;;5.93;;
78344;SDS011;67620;51.134;6.548;2023-03-01T13:27:36;10.02;;;6.43;;
78344;SDS011;67620;51.134;6.548;2023-03-01T13:30:01;9.07;;;6.35;;
78344;SDS011;67620;51.134;6.548;2023-03-01T13:32:35;10.07;;;6.22;;
78344;SDS011;67620;51.134;6.548;2023-03-01T13:37:39;8.63;;;5.78;;
78344;SDS011;67620;51.134;6.548;2023-03-01T13:40:56;10.00;;;5.72;;
78344;SDS011;67620;51.134;6.548;2023-03-01T13:42:54;7.50;;;5.63;;
78344;SDS011;67620;51.134;6.548;2023-03-01T13:47:52;9.52;;;5.60;;
78344;SDS011;67620;51.134;6.548;2023-03-01T13:50:25;8.35;;;5.85;;
78344;SDS011;67620;51.134;6.548;2023-03-01T13:53:00;11.40;;;6.25;;
78344;SDS011;67620;51.134;6.548;2023-03-01T13:55:34;8.63;;;6.05;;
78344;SDS011;67620;51.134;6.548;2023-03-01T13:58:21;8.13;;;5.35;;
78344;SDS011;67620;51.134;6.548;2023-03-01T14:01:03;7.68;;;5.60;;
78344;SDS011;67620;51.134;6.548;2023-03-01T14:03:30;10.20;;;6.07;;
78344;SDS011;67620;51.134;6.548;2023-03-01T14:08:26;9.68;;;5.93;;
78344;SDS011;67620;51.134;6.548;2023-03-01T14:14:04;10.25;;;6.50;;
78344;SDS011;67620;51.134;6.548;2023-03-01T14:19:34;8.65;;;5.25;;
78344;SDS011;67620;51.134;6.548;2023-03-01T14:24:56;11.55;;;6.43;;
78344;SDS011;67620;51.134;6.548;2023-03-01T14:27:30;8.60;;;5.47;;
78344;SDS011;67620;51.134;6.548;2023-03-01T14:30:10;8.55;;;5.53;;
78344;SDS011;67620;51.134;6.548;2023-03-01T14:32:39;9.77;;;5.90;;
78344;SDS011;67620;51.134;6.548;2023-03-01T14:35:18;10.65;;;5.75;;
78344;SDS011;67620;51.134;6.548;2023-03-01T14:37:54;9.55;;;5.45;;
78344;SDS011;67620;51.134;6.548;2023-03-01T14:40:21;8.15;;;4.97;;
78344;SDS011;67620;51.134;6.548;2023-03-01T14:42:49;9.48;;;5.53;;
78344;SDS011;67620;51.134;6.548;2023-03-01T14:45:15;9.57;;;6.20;;
78344;SDS011;67620;51.134;6.548;2023-03-01T14:47:43;9.27;;;5.97;;
78344;SDS011;67620;51.134;6.548;2023-03-01T14:52:47;8.25;;;5.57;;
78344;SDS011;67620;51.134;6.548;2023-03-01T14:55:19;12.05;;;6.18;;
78344;SDS011;67620;51.134;6.548;2023-03-01T14:57:47;8.82;;;6.20;;
78344;SDS011;67620;51.134;6.548;2023-03-01T15:00:18;10.35;;;6.03;;
78344;SDS011;67620;51.134;6.548;2023-03-01T15:02:47;10.02;;;6.15;;
78344;SDS011;67620;51.134;6.548;2023-03-01T15:05:14;8.77;;;5.97;;
78344;SDS011;67620;51.134;6.548;2023-03-01T15:07:43;11.93;;;6.35;;
78344;SDS011;67620;51.134;6.548;2023-03-01T15:10:21;11.40;;;5.60;;
78344;SDS011;67620;51.134;6.548;2023-03-01T15:12:48;8.88;;;6.13;;
78344;SDS011;67620;51.134;6.548;2023-03-01T15:15:34;9.27;;;6.00;;
78344;SDS011;67620;51.134;6.548;2023-03-01T15:18:04;11.25;;;6.07;;
78344;SDS011;67620;51.134;6.548;2023-03-01T15:20:39;9.43;;;5.47;;
78344;SDS011;67620;51.134;6.548;2023-03-01T15:23:05;10.18;;;5.90;;
78344;SDS011;67620;51.134;6.548;2023-03-01T15:25:32;11.90;;;6.55;;
78344;SDS011;67620;51.134;6.548;2023-03-01T15:27:59;9.73;;;6.53;;
78344;SDS011;67620;51.134;6.548;2023-03-01T15:30:31;12.43;;;6.15;;
78344;SDS011;67620;51.134;6.548;2023-03-01T15:35:53;13.20;;;6.03;;
78344;SDS011;67620;51.134;6.548;2023-03-01T15:38:31;9.23;;;6.15;;
78344;SDS011;67620;51.134;6.548;2023-03-01T15:41:23;10.20;;;6.28;;
78344;SDS011;67620;51.134;6.548;2023-03-01T15:43:50;10.40;;;6.10;;
78344;SDS011;67620;51.134;6.548;2023-03-01T15:46:21;8.85;;;5.95;;
78344;SDS011;67620;51.134;6.548;2023-03-01T15:49:03;11.32;;;6.30;;
78344;SDS011;67620;51.134;6.548;2023-03-01T15:51:42;12.15;;;6.38;;
78344;SDS011;67620;51.134;6.548;2023-03-01T15:54:26;9.05;;;5.88;;
78344;SDS011;67620;51.134;6.548;2023-03-01T15:56:52;10.00;;;5.93;;
78344;SDS011;67620;51.134;6.548;2023-03-01T15:59:18;8.43;;;5.93;;
78344;SDS011;67620;51.134;6.548;2023-03-01T16:01:44;9.73;;;6.07;;
78344;SDS011;67620;51.134;6.548;2023-03-01T16:04:11;9.30;;;5.80;;
78344;SDS011;67620;51.134;6.548;2023-03-01T16:06:45;9.95;;;6.13;;
78344;SDS011;67620;51.134;6.548;2023-03-01T16:09:21;12.20;;;6.57;;
78344;SDS011;67620;51.134;6.548;2023-03-01T16:11:50;8.68;;;5.85;;
78344;SDS011;67620;51.134;6.548;2023-03-01T16:14:17;8.93;;;5.88;;
78344;SDS011;67620;51.134;6.548;2023-03-01T16:16:43;10.25;;;6.63;;
78344;SDS011;67620;51.134;6.548;2023-03-01T16:19:10;9.68;;;5.55;;
78344;SDS011;67620;51.134;6.548;2023-03-01T16:21:35;8.85;;;5.85;;
78344;SDS011;67620;51.134;6.548;2023-03-01T16:24:01;9.63;;;5.47;;
78344;SDS011;67620;51.134;6.548;2023-03-01T16:26:27;8.48;;;5.30;;
78344;SDS011;67620;51.134;6.548;2023-03-01T16:28:54;9.57;;;5.50;;
78344;SDS011;67620;51.134;6.548;2023-03-01T16:31:21;11.70;;;5.53;;
78344;SDS011;67620;51.134;6.548;2023-03-01T16:33:47;10.80;;;5.30;;
78344;SDS011;67620;51.134;6.548;2023-03-01T16:36:15;10.23;;;5.25;;
78344;SDS011;67620;51.134;6.548;2023-03-01T16:38:43;9.27;;;5.20;;
78344;SDS011;67620;51.134;6.548;2023-03-01T16:41:11;12.52;;;5.70;;
78344;SDS011;67620;51.134;6.548;2023-03-01T16:43:41;9.20;;;5.30;;